Time;durP1;ratioP1;P1;durP2;ratioP2;P2;SDS_P1;SDS_P2;PMS_P1;PMS_P2;Temp;Humidity;BMP_temperature;BMP_pressure;BME280_temperature;BME280_humidity;BME280_pressure;Samples;Min_cycle;Max_cycle;Signal;HPM_P1;HPM_P2
2023/09/12 00:01:11;;;;;;;2.43;1.53;;;;;;;20.86;51.98;99212.28;5107810;28;20210;-63
2023/09/12 00:03:38;;;;;;;3.00;1.97;;;;;;;20.83;51.97;99207.44;5108477;28;20202;-63
2023/09/12 00:06:05;;;;;;;4.30;1.73;;;;;;;20.86;51.52;99209.69;5108574;28;20192;-63
2023/09/12 00:08:32;;;;;;;2.87;1.80;;;;;;;20.81;52.39;99209.38;5108242;28;20219;-63
2023/09/12 00:11:03;;;;;;;2.30;1.73;;;;;;;20.83;52.08;99201.41;5107866;28;20204;-63
2023/09/12 00:13:32;;;;;;;1.77;1.50;;;;;;;20.80;52.26;99197.38;5108665;28;20583;-63
2023/09/12 00:15:59;;;;;;;2.57;1.50;;;;;;;20.78;51.75;99199.34;5107753;28;20374;-63
2023/09/12 00:18:27;;;;;;;2.13;1.50;;;;;;;20.77;51.85;99202.94;5107877;28;20208;-63
2023/09/12 00:20:54;;;;;;;5.93;1.70;;;;;;;20.76;51.64;99196.91;5108034;28;20234;-63
2023/09/12 00:23:23;;;;;;;1.93;1.50;;;;;;;20.86;51.64;99207.09;5108115;28;20359;-63
2023/09/12 00:25:50;;;;;;;3.23;1.30;;;;;;;20.75;51.85;99204.88;5106974;28;20215;-63
2023/09/12 00:28:17;;;;;;;2.30;1.33;;;;;;;20.64;52.42;99202.69;5108078;28;20564;-63
2023/09/12 00:30:45;;;;;;;2.00;1.67;;;;;;;20.48;53.46;99206.97;5108156;28;20222;-62
2023/09/12 00:33:12;;;;;;;2.70;1.70;;;;;;;20.44;53.91;99208.28;5107355;28;20214;-62
2023/09/12 00:35:39;;;;;;;2.27;1.50;;;;;;;20.35;54.36;99204.13;5108234;28;20203;-63
2023/09/12 00:38:06;;;;;;;2.83;1.80;;;;;;;20.33;54.85;99200.88;5108195;28;20205;-63
2023/09/12 00:40:33;;;;;;;2.03;1.60;;;;;;;20.29;55.46;99194.41;5107506;28;20858;-63
2023/09/12 00:43:00;;;;;;;1.43;1.30;;;;;;;20.26;55.21;99205.16;5108195;28;20574;-63
2023/09/12 00:45:27;;;;;;;2.20;1.53;;;;;;;20.25;55.34;99203.53;5108065;28;20220;-63
2023/09/12 00:47:56;;;;;;;3.13;1.60;;;;;;;20.23;54.55;99205.50;5107511;28;20197;-63
2023/09/12 00:50:26;;;;;;;3.53;1.60;;;;;;;20.15;53.54;99208.13;5107505;28;20196;-63
2023/09/12 00:52:54;;;;;;;4.07;1.80;;;;;;;20.09;54.24;99209.59;5107887;28;20649;-63
2023/09/12 00:55:21;;;;;;;3.40;1.70;;;;;;;20.04;54.61;99207.53;5107818;28;20208;-63
2023/09/12 00:57:49;;;;;;;3.57;1.50;;;;;;;20.00;54.46;99211.44;5107007;28;20202;-63
2023/09/12 01:00:17;;;;;;;2.47;1.77;;;;;;;19.94;54.59;99209.50;5107806;28;20617;-63
2023/09/12 01:02:45;;;;;;;2.47;1.90;;;;;;;19.87;55.40;99209.38;5108060;28;20554;-63
2023/09/12 01:05:14;;;;;;;2.23;1.63;;;;;;;19.77;54.71;99206.16;5107114;28;20203;-63
2023/09/12 01:07:44;;;;;;;2.47;1.57;;;;;;;19.70;54.27;99202.63;5107273;28;20199;-63
2023/09/12 01:10:11;;;;;;;2.87;1.40;;;;;;;19.62;54.16;99211.19;5107743;28;20553;-63
2023/09/12 01:12:38;;;;;;;1.90;1.23;;;;;;;19.49;53.97;99212.66;5107383;28;20197;-63
2023/09/12 01:15:13;;;;;;;1.60;1.40;;;;;;;19.41;53.94;99205.72;5107393;28;20282;-63
2023/09/12 01:17:40;;;;;;;2.17;1.60;;;;;;;19.34;53.46;99209.94;5107972;28;20230;-63
2023/09/12 01:20:12;;;;;;;5.50;1.53;;;;;;;19.25;53.37;99210.94;5107626;28;20668;-63
2023/09/12 01:23:07;;;;;;;4.60;1.30;;;;;;;19.13;52.75;99216.44;5107427;28;20200;-63
2023/09/12 01:26:05;;;;;;;2.13;1.20;;;;;;;19.09;53.55;99207.38;5107595;28;20322;-63
2023/09/12 01:28:35;;;;;;;1.80;1.40;;;;;;;19.14;54.20;99214.66;5107326;28;20229;-63
2023/09/12 01:31:03;;;;;;;4.17;1.70;;;;;;;19.10;54.04;99211.56;5107414;28;20574;-63
2023/09/12 01:33:30;;;;;;;2.47;1.40;;;;;;;19.15;54.76;99214.50;5108108;28;20205;-63
2023/09/12 01:35:57;;;;;;;2.10;1.50;;;;;;;19.21;54.35;99216.44;5107833;28;20197;-63
2023/09/12 01:38:24;;;;;;;1.83;1.40;;;;;;;19.25;53.67;99223.88;5110696;28;20216;-62
2023/09/12 01:40:53;;;;;;;3.47;1.70;;;;;;;19.26;53.16;99215.13;5110892;28;20773;-63
2023/09/12 01:43:23;;;;;;;1.73;1.30;;;;;;;19.23;53.88;99213.69;5111373;28;20726;-63
2023/09/12 01:45:54;;;;;;;1.53;1.40;;;;;;;19.15;53.56;99217.09;5110469;28;20201;-63
2023/09/12 01:48:24;;;;;;;2.40;1.60;;;;;;;19.11;53.14;99210.63;5111001;28;20240;-63
2023/09/12 01:50:51;;;;;;;2.77;1.53;;;;;;;19.14;53.51;99210.31;5111032;28;20200;-63
2023/09/12 01:53:18;;;;;;;2.23;1.70;;;;;;;19.16;53.37;99215.31;5110311;28;20204;-62
2023/09/12 01:55:46;;;;;;;1.57;1.33;;;;;;;19.17;53.11;99212.56;5110784;28;20217;-63
2023/09/12 01:58:14;;;;;;;2.23;1.50;;;;;;;19.20;52.47;99220.00;5110688;28;20202;-63
2023/09/12 02:00:42;;;;;;;2.97;1.40;;;;;;;19.25;52.11;99216.91;5110097;28;20234;-63
2023/09/12 02:03:10;;;;;;;4.53;1.50;;;;;;;19.26;51.58;99215.13;5110273;27;20603;-63
2023/09/12 02:05:37;;;;;;;2.67;1.60;;;;;;;19.22;52.78;99223.22;5110843;28;20201;-63
2023/09/12 02:08:05;;;;;;;3.37;1.67;;;;;;;19.11;52.88;99215.81;5110625;28;20209;-63
2023/09/12 02:10:31;;;;;;;2.47;1.53;;;;;;;18.98;53.40;99220.66;5109624;28;20661;-63
2023/09/12 02:12:58;;;;;;;2.97;1.47;;;;;;;18.92;53.88;99216.13;5109278;28;20209;-63
2023/09/12 02:15:25;;;;;;;2.37;1.63;;;;;;;18.84;54.01;99216.91;5109033;28;20202;-63
2023/09/12 02:17:52;;;;;;;1.83;1.37;;;;;;;18.80;54.51;99217.41;5109016;28;20201;-63
2023/09/12 02:20:21;;;;;;;2.40;1.30;;;;;;;18.75;54.97;99221.28;5108813;28;20241;-63
2023/09/12 02:22:48;;;;;;;1.60;1.50;;;;;;;18.72;55.12;99221.56;5109972;28;20697;-63
2023/09/12 02:25:15;;;;;;;4.27;1.60;;;;;;;18.68;55.21;99225.47;5110220;28;20212;-63
2023/09/12 02:27:41;;;;;;;2.70;1.67;;;;;;;18.63;54.75;99222.53;5109662;28;20194;-63
2023/09/12 02:30:09;;;;;;;1.77;1.20;;;;;;;18.54;55.02;99223.47;5109719;28;20201;-63
2023/09/12 02:32:36;;;;;;;4.00;1.67;;;;;;;18.48;55.54;99221.53;5110309;28;20232;-63
2023/09/12 02:35:03;;;;;;;1.90;1.40;;;;;;;18.47;56.01;99219.88;5110287;28;20681;-63
2023/09/12 02:37:31;;;;;;;2.53;1.47;;;;;;;18.45;56.48;99219.25;5109241;28;20205;-63
2023/09/12 02:39:58;;;;;;;1.93;1.50;;;;;;;18.39;56.89;99217.31;5109853;28;20255;-63
2023/09/12 02:42:25;;;;;;;2.33;1.40;;;;;;;18.35;57.32;99210.81;5109919;28;20201;-63
2023/09/12 02:44:53;;;;;;;2.20;1.37;;;;;;;18.29;57.52;99215.63;5109076;28;20396;-63
2023/09/12 02:47:20;;;;;;;3.60;1.70;;;;;;;18.29;57.60;99215.63;5108995;28;20250;-63
2023/09/12 02:49:46;;;;;;;2.33;1.40;;;;;;;18.31;57.56;99208.53;5110139;28;20197;-63
2023/09/12 02:52:13;;;;;;;1.70;1.30;;;;;;;18.28;57.52;99208.84;5109466;28;20201;-63
2023/09/12 02:54:41;;;;;;;2.00;1.50;;;;;;;18.23;57.30;99210.28;5109200;28;20208;-63
2023/09/12 02:57:08;;;;;;;3.27;1.37;;;;;;;18.16;57.95;99215.28;5109935;28;20210;-63
2023/09/12 02:59:35;;;;;;;2.53;1.40;;;;;;;18.13;58.25;99205.25;5109651;28;20697;-63
2023/09/12 03:02:02;;;;;;;2.87;1.80;;;;;;;18.06;58.13;99207.66;5109078;28;20204;-63
2023/09/12 03:04:30;;;;;;;2.97;1.67;;;;;;;18.04;58.48;99204.41;5109815;28;20210;-63
2023/09/12 03:06:57;;;;;;;2.40;1.60;;;;;;;18.04;58.38;99212.16;5109476;28;20246;-63
2023/09/12 03:09:24;;;;;;;1.97;1.43;;;;;;;18.03;58.69;99204.53;5108571;28;20222;-63
2023/09/12 03:11:52;;;;;;;1.83;1.60;;;;;;;17.99;57.89;99216.19;5109288;28;20206;-62
2023/09/12 03:14:19;;;;;;;3.80;1.60;;;;;;;17.99;57.89;99218.78;5109611;28;20203;-63
2023/09/12 03:16:45;;;;;;;1.83;1.40;;;;;;;18.02;58.88;99223.63;5109428;28;20445;-63
2023/09/12 03:19:12;;;;;;;2.00;1.60;;;;;;;18.03;58.46;99220.06;5109204;28;20244;-63
2023/09/12 03:21:39;;;;;;;4.83;1.80;;;;;;;17.93;59.06;99209.03;5108396;28;20235;-63
2023/09/12 03:24:06;;;;;;;6.60;1.70;;;;;;;17.92;59.01;99222.94;5109315;28;20652;-63
2023/09/12 03:26:35;;;;;;;2.57;1.53;;;;;;;18.14;59.62;99231.94;5109535;28;20519;-63
2023/09/12 03:29:04;;;;;;;2.13;1.60;;;;;;;18.28;58.24;99239.91;5108151;28;20727;-63
2023/09/12 03:31:31;;;;;;;3.40;1.60;;;;;;;18.20;58.98;99226.94;5108795;28;20231;-62
2023/09/12 03:33:58;;;;;;;2.03;1.33;;;;;;;18.08;59.03;99235.94;5108890;28;20198;-63
2023/09/12 03:36:25;;;;;;;3.60;1.63;;;;;;;17.99;59.75;99234.28;5108793;28;20311;-63
2023/09/12 03:38:51;;;;;;;3.50;1.70;;;;;;;18.02;60.84;99239.16;5108275;28;20677;-63
2023/09/12 03:41:18;;;;;;;3.23;1.67;;;;;;;18.15;59.65;99242.13;5108831;28;20629;-63
2023/09/12 03:43:45;;;;;;;2.93;1.60;;;;;;;18.10;59.88;99245.19;5108898;28;20200;-63
2023/09/12 03:46:13;;;;;;;2.13;1.40;;;;;;;17.97;61.33;99244.78;5108160;28;20240;-63
2023/09/12 03:48:40;;;;;;;3.63;1.60;;;;;;;17.93;62.68;99245.25;5108529;28;20722;-63
2023/09/12 03:51:07;;;;;;;1.50;1.30;;;;;;;17.86;63.67;99245.88;5108853;28;20207;-63
2023/09/12 03:53:33;;;;;;;4.67;1.90;;;;;;;17.90;64.65;99245.56;5107925;28;20198;-63
2023/09/12 03:56:00;;;;;;;2.20;1.33;;;;;;;17.82;64.82;99249.72;5108539;28;20197;-63
2023/09/12 03:58:27;;;;;;;3.27;1.40;;;;;;;17.80;64.99;99243.91;5108369;28;20213;-63
2023/09/12 04:00:54;;;;;;;2.40;1.60;;;;;;;17.78;66.29;99239.84;5107046;28;20236;-63
2023/09/12 04:03:22;;;;;;;3.40;1.83;;;;;;;17.74;67.29;99246.25;5108461;28;20227;-63
2023/09/12 04:05:51;;;;;;;2.90;1.40;;;;;;;17.71;67.63;99247.34;5108645;28;20267;-63
2023/09/12 04:08:17;;;;;;;5.70;1.40;;;;;;;17.72;68.27;99243.81;5107824;28;20210;-63
2023/09/12 04:10:44;;;;;;;2.50;1.80;;;;;;;17.67;69.20;99246.06;5107805;28;20237;-63
2023/09/12 04:13:11;;;;;;;2.17;1.50;;;;;;;17.61;69.86;99244.06;5108270;28;20550;-63
2023/09/12 04:15:38;;;;;;;1.87;1.57;;;;;;;17.63;71.23;99244.75;5108250;28;20224;-63
2023/09/12 04:18:05;;;;;;;2.53;1.53;;;;;;;17.58;71.76;99246.97;5107543;28;20204;-63
2023/09/12 04:20:34;;;;;;;3.10;1.70;;;;;;;17.55;72.94;99247.28;5108185;28;20229;-63
2023/09/12 04:23:03;;;;;;;4.87;1.93;;;;;;;17.48;73.27;99256.56;5108351;28;20200;-63
2023/09/12 04:25:30;;;;;;;2.33;1.73;;;;;;;17.41;72.76;99252.00;5107281;28;20198;-63
2023/09/12 04:27:56;;;;;;;5.83;2.10;;;;;;;17.46;74.01;99254.16;5107882;28;20212;-63
2023/09/12 04:30:23;;;;;;;2.63;1.47;;;;;;;17.49;74.33;99247.88;5108162;28;20210;-63
2023/09/12 04:32:50;;;;;;;3.87;2.40;;;;;;;17.51;74.61;99257.09;5107675;28;20205;-63
2023/09/12 04:35:19;;;;;;;3.70;2.63;;;;;;;17.54;75.29;99258.56;5107839;28;20199;-63
2023/09/12 04:37:47;;;;;;;4.77;2.80;;;;;;;17.54;74.74;99266.31;5107958;28;20648;-63
2023/09/12 04:40:14;;;;;;;3.40;2.57;;;;;;;17.58;76.30;99265.88;5108074;28;20215;-63
2023/09/12 04:42:41;;;;;;;6.80;3.00;;;;;;;17.62;76.13;99262.00;5108042;28;20836;-63
2023/09/12 04:45:08;;;;;;;4.13;2.67;;;;;;;17.65;76.51;99263.47;5107922;28;20202;-63
2023/09/12 04:47:35;;;;;;;4.30;2.67;;;;;;;17.67;76.71;99264.16;5108329;28;20204;-63
2023/09/12 04:50:02;;;;;;;3.13;2.30;;;;;;;17.69;75.88;99269.19;5107802;28;20203;-63
2023/09/12 04:52:29;;;;;;;4.17;2.47;;;;;;;17.80;77.24;99267.19;5107975;28;20199;-63
2023/09/12 04:54:57;;;;;;;4.47;2.13;;;;;;;17.89;76.56;99270.63;5107948;28;20304;-63
2023/09/12 04:57:23;;;;;;;3.50;2.33;;;;;;;18.01;77.49;99268.59;5108008;28;20202;-63
2023/09/12 04:59:52;;;;;;;2.73;1.90;;;;;;;18.12;77.02;99270.88;5107711;28;20232;-63
2023/09/12 05:02:19;;;;;;;10.67;2.07;;;;;;;18.18;78.02;99270.28;5107724;28;20227;-63
2023/09/12 05:04:46;;;;;;;2.73;1.90;;;;;;;18.28;75.61;99270.16;5107766;28;20704;-63
2023/09/12 05:07:13;;;;;;;4.40;2.10;;;;;;;18.45;74.15;99265.84;5108295;28;20284;-63
2023/09/12 05:09:40;;;;;;;4.10;2.10;;;;;;;18.66;69.10;99268.03;5107975;28;20673;-63
2023/09/12 05:12:08;;;;;;;2.60;1.87;;;;;;;18.83;66.90;99274.09;5111098;28;20227;-63
2023/09/12 05:14:35;;;;;;;2.57;1.90;;;;;;;18.93;65.61;99274.72;5111893;28;20193;-63
2023/09/12 05:17:03;;;;;;;3.07;1.77;;;;;;;19.11;66.96;99265.06;5112070;28;20199;-63
2023/09/12 05:19:31;;;;;;;3.77;1.70;;;;;;;19.32;67.74;99268.94;5112079;28;20194;-62
2023/09/12 05:21:58;;;;;;;1.83;1.50;;;;;;;19.50;63.08;99264.38;5111700;28;20234;-63
2023/09/12 05:24:25;;;;;;;2.47;1.80;;;;;;;19.66;62.40;99269.59;5111647;28;20211;-63
2023/09/12 05:26:51;;;;;;;3.07;2.00;;;;;;;19.85;62.37;99270.19;5111345;28;20683;-64
2023/09/12 05:29:19;;;;;;;3.03;1.80;;;;;;;20.07;60.31;99266.91;5111489;28;20659;-63
2023/09/12 05:31:46;;;;;;;2.17;1.50;;;;;;;20.24;58.91;99261.63;5111320;28;20210;-63
2023/09/12 05:34:13;;;;;;;2.70;1.80;;;;;;;20.48;57.05;99269.31;5111356;28;20197;-63
2023/09/12 05:36:40;;;;;;;5.47;2.00;;;;;;;20.68;55.92;99269.72;5111266;28;20205;-63
2023/09/12 05:39:06;;;;;;;3.10;1.80;;;;;;;20.89;54.92;99273.50;5111260;28;20198;-63
2023/09/12 05:41:34;;;;;;;2.77;1.70;;;;;;;21.14;55.60;99272.31;5111248;28;20230;-62
2023/09/12 05:44:01;;;;;;;2.37;1.70;;;;;;;21.41;54.21;99273.63;5111136;28;20610;-63
2023/09/12 05:46:29;;;;;;;4.03;1.83;;;;;;;21.60;53.57;99276.69;5111163;28;20215;-63
2023/09/12 05:48:56;;;;;;;3.80;1.90;;;;;;;21.84;55.60;99273.84;5110439;28;20200;-63
2023/09/12 05:51:22;;;;;;;2.63;1.97;;;;;;;22.09;53.59;99282.19;5109644;28;20223;-63
2023/09/12 05:53:49;;;;;;;3.40;1.70;;;;;;;22.43;56.02;99285.22;5109733;28;20211;-63
2023/09/12 05:56:16;;;;;;;4.13;1.73;;;;;;;22.70;54.07;99284.56;5111024;28;20244;-63
2023/09/12 05:58:43;;;;;;;4.45;2.25;;;;;;;22.96;51.97;99285.84;5110778;28;20204;-62
2023/09/12 06:01:10;;;;;;;3.53;1.90;;;;;;;23.12;51.86;99284.78;5110817;27;20232;-63
2023/09/12 06:03:38;;;;;;;4.20;1.85;;;;;;;23.30;52.00;99279.13;5110921;28;20198;-63
2023/09/12 06:06:05;;;;;;;3.05;2.00;;;;;;;23.52;51.66;99282.50;5110900;28;20288;-63
2023/09/12 06:08:32;;;;;;;5.18;2.03;;;;;;;23.68;48.37;99279.63;5110833;28;20314;-63
2023/09/12 06:10:59;;;;;;;12.70;5.45;;;;;;;23.72;50.79;99284.28;5110361;28;20213;-63
2023/09/12 06:13:26;;;;;;;3.38;2.08;;;;;;;23.93;47.98;99285.22;5110627;28;20197;-63
2023/09/12 06:15:52;;;;;;;2.88;2.00;;;;;;;24.09;50.13;99295.34;5110299;28;20208;-63
2023/09/12 06:18:19;;;;;;;2.33;1.77;;;;;;;24.26;49.55;99289.78;5110718;28;20255;-63
2023/09/12 06:20:47;;;;;;;5.72;2.13;;;;;;;24.44;47.18;99295.34;5110298;28;20659;-63
2023/09/12 06:23:14;;;;;;;5.40;2.30;;;;;;;24.61;46.50;99293.19;5109539;28;20202;-63
2023/09/12 06:25:41;;;;;;;2.78;2.20;;;;;;;24.75;45.91;99299.25;5110599;28;20197;-63
2023/09/12 06:28:10;;;;;;;3.78;1.92;;;;;;;24.76;43.34;99306.09;5110272;28;20713;-63
2023/09/12 06:30:37;;;;;;;3.72;2.08;;;;;;;24.91;44.17;99309.34;5110615;28;20230;-63
2023/09/12 06:33:04;;;;;;;6.70;2.00;;;;;;;25.21;48.45;99309.81;5110272;28;20205;-63
2023/09/12 06:35:33;;;;;;;2.90;1.75;;;;;;;25.46;45.87;99312.66;5110315;28;20193;-63
2023/09/12 06:38:01;;;;;;;2.92;1.92;;;;;;;25.48;43.87;99315.03;5110060;28;20860;-62
2023/09/12 06:40:28;;;;;;;33.97;2.80;;;;;;;25.50;44.46;99319.06;5109969;28;20725;-63
2023/09/12 06:42:54;;;;;;;2.53;1.92;;;;;;;25.56;43.53;99324.53;5109908;28;20224;-63
2023/09/12 06:45:21;;;;;;;2.60;1.85;;;;;;;25.55;43.25;99328.16;5109839;28;20197;-63
2023/09/12 06:47:48;;;;;;;3.72;2.03;;;;;;;25.50;43.18;99324.31;5110275;28;20201;-62
2023/09/12 06:50:15;;;;;;;3.25;2.00;;;;;;;25.80;46.42;99331.75;5109938;28;20197;-62
2023/09/12 06:52:42;;;;;;;2.85;1.90;;;;;;;26.13;43.90;99344.03;5109789;28;20197;-63
2023/09/12 06:55:10;;;;;;;8.70;3.65;;;;;;;26.30;44.43;99339.13;5109863;28;20197;-62
2023/09/12 06:57:37;;;;;;;4.97;3.38;;;;;;;26.54;42.10;99338.47;5109882;28;20224;-62
2023/09/12 07:00:07;;;;;;;3.70;2.38;;;;;;;26.78;46.35;99344.78;5109818;28;20198;-62
2023/09/12 07:02:34;;;;;;;5.25;2.35;;;;;;;26.98;43.47;99342.06;5109406;27;20359;-62
2023/09/12 07:05:01;;;;;;;4.75;2.70;;;;;;;27.12;42.32;99348.03;5109791;28;20210;-62
2023/09/12 07:07:27;;;;;;;2.53;1.90;;;;;;;27.06;43.29;99354.16;5109558;28;20213;-62
2023/09/12 07:09:54;;;;;;;3.63;2.28;;;;;;;27.25;41.04;99352.41;5109146;28;20645;-62
2023/09/12 07:12:22;;;;;;;7.57;3.30;;;;;;;27.47;40.70;99352.88;5109467;28;20280;-62
2023/09/12 07:14:50;;;;;;;8.23;6.55;;;;;;;27.64;40.49;99361.81;5109284;28;20221;-62
2023/09/12 07:17:17;;;;;;;27.77;18.35;;;;;;;27.84;43.00;99356.44;5109324;28;20193;-63
2023/09/12 07:19:44;;;;;;;9.75;3.33;;;;;;;28.01;42.38;99356.66;5109545;28;20197;-62
2023/09/12 07:22:11;;;;;;;7.07;3.33;;;;;;;28.20;41.70;99350.38;5109292;28;20648;-63
2023/09/12 07:24:38;;;;;;;5.93;2.63;;;;;;;28.46;44.39;99348.50;5109277;28;20543;-62
2023/09/12 07:27:05;;;;;;;5.57;2.75;;;;;;;28.66;41.19;99349.06;5109362;28;20228;-63
2023/09/12 07:29:33;;;;;;;4.03;2.30;;;;;;;28.95;44.20;99351.91;5109073;28;20718;-62
2023/09/12 07:32:00;;;;;;;4.63;2.30;;;;;;;29.21;43.47;99349.97;5109127;28;20205;-63
2023/09/12 07:34:27;;;;;;;5.45;2.30;;;;;;;29.26;37.06;99350.84;5109161;28;20210;-63
2023/09/12 07:36:54;;;;;;;3.40;1.80;;;;;;;29.43;40.42;99352.84;5109004;28;20597;-62
2023/09/12 07:39:21;;;;;;;5.60;2.33;;;;;;;29.52;37.32;99349.63;5109217;28;20197;-62
2023/09/12 07:41:48;;;;;;;4.70;2.38;;;;;;;29.66;37.19;99346.81;5108697;28;20232;-63
2023/09/12 07:44:15;;;;;;;4.80;2.70;;;;;;;29.52;36.99;99362.00;5108889;28;20193;-62
2023/09/12 07:46:44;;;;;;;4.32;2.53;;;;;;;29.63;42.93;99352.56;5108957;28;20199;-62
2023/09/12 07:49:11;;;;;;;3.40;2.17;;;;;;;29.76;37.32;99353.13;5108754;28;20208;-62
2023/09/12 07:51:37;;;;;;;4.18;2.42;;;;;;;29.82;38.21;99347.94;5108653;28;20208;-62
2023/09/12 07:54:05;;;;;;;5.80;2.10;;;;;;;30.00;35.49;99350.47;5108852;28;20697;-63
2023/09/12 07:56:31;;;;;;;3.15;2.10;;;;;;;29.99;37.34;99349.69;5108643;28;20261;-63
2023/09/12 07:58:59;;;;;;;9.10;1.98;;;;;;;30.34;42.29;99342.75;5108386;28;20218;-63
2023/09/12 08:01:27;;;;;;;4.70;1.90;;;;;;;30.68;40.11;99343.66;5108376;28;20248;-62
2023/09/12 08:03:55;;;;;;;5.38;2.00;;;;;;;30.66;34.20;99349.19;5108445;28;20210;-62
2023/09/12 08:06:23;;;;;;;2.30;1.90;;;;;;;30.64;36.05;99347.81;5108519;28;20666;-62
2023/09/12 08:08:51;;;;;;;3.35;1.80;;;;;;;30.83;37.93;99353.72;5108534;28;20288;-63
2023/09/12 08:11:18;;;;;;;4.57;2.10;;;;;;;30.84;35.09;99348.22;5108455;28;20225;-62
2023/09/12 08:13:50;;;;;;;3.03;2.08;;;;;;;30.71;34.58;99347.66;5108308;28;20205;-62
2023/09/12 08:16:17;;;;;;;3.72;1.83;;;;;;;30.84;35.71;99348.22;5108506;28;20232;-62
2023/09/12 08:18:44;;;;;;;9.55;2.03;;;;;;;30.95;33.69;99348.38;5108278;28;20209;-62
2023/09/12 08:21:12;;;;;;;4.75;2.50;;;;;;;31.16;37.01;99350.34;5108050;28;20205;-62
2023/09/12 08:23:39;;;;;;;2.40;1.80;;;;;;;31.46;40.05;99346.63;5108050;28;20609;-62
2023/09/12 08:26:06;;;;;;;5.93;2.17;;;;;;;31.74;40.94;99351.00;5108832;28;20204;-63
2023/09/12 08:28:33;;;;;;;4.75;2.15;;;;;;;31.68;32.53;99347.47;5108328;28;20205;-62
2023/09/12 08:30:59;;;;;;;4.75;2.08;;;;;;;31.84;33.03;99350.31;5108038;28;20202;-62
2023/09/12 08:33:26;;;;;;;3.78;2.30;;;;;;;32.03;33.76;99343.75;5108014;28;20713;-63
2023/09/12 08:35:53;;;;;;;2.67;2.00;;;;;;;32.01;34.18;99341.34;5108228;28;20202;-62
2023/09/12 08:38:21;;;;;;;2.55;2.17;;;;;;;32.01;31.91;99348.47;5108174;28;20204;-62
2023/09/12 08:40:51;;;;;;;3.05;2.10;;;;;;;31.98;32.64;99351.59;5108225;28;20591;-62
2023/09/12 08:43:18;;;;;;;3.67;1.80;;;;;;;32.02;33.93;99342.13;5108017;28;20618;-62
2023/09/12 08:45:47;;;;;;;4.13;2.10;;;;;;;32.27;37.78;99331.06;5109327;28;20221;-62
2023/09/12 08:48:16;;;;;;;2.45;2.00;;;;;;;32.41;37.22;99340.22;5112247;28;20201;-63
2023/09/12 08:50:44;;;;;;;2.13;1.80;;;;;;;32.34;34.14;99336.16;5112236;28;20193;-62
2023/09/12 08:53:11;;;;;;;4.28;2.33;;;;;;;32.55;35.14;99335.38;5112104;28;20232;-62
2023/09/12 08:55:40;;;;;;;3.75;1.90;;;;;;;32.69;33.40;99341.84;5111821;28;20194;-63
2023/09/12 08:58:07;;;;;;;2.45;1.98;;;;;;;32.66;31.60;99337.06;5111997;28;20205;-62
2023/09/12 09:00:35;;;;;;;2.38;1.88;;;;;;;32.53;33.65;99336.69;5112029;28;20207;-62
2023/09/12 09:03:03;;;;;;;4.95;2.13;;;;;;;32.81;36.18;99335.63;5111800;28;20236;-63
2023/09/12 09:05:32;;;;;;;3.22;2.03;;;;;;;32.82;30.35;99339.88;5111925;28;20232;-63
2023/09/12 09:07:59;;;;;;;3.65;2.10;;;;;;;32.45;34.92;99332.63;5111643;28;20213;-62
2023/09/12 09:10:32;;;;;;;3.30;2.20;;;;;;;32.92;34.37;99332.00;5111956;28;20217;-62
2023/09/12 09:13:00;;;;;;;4.63;1.80;;;;;;;32.60;30.59;99337.28;5111626;28;20189;-62
2023/09/12 09:15:28;;;;;;;5.30;2.30;;;;;;;32.83;31.48;99330.88;5111766;28;20206;-63
2023/09/12 09:17:56;;;;;;;3.75;2.17;;;;;;;32.95;30.32;99333.38;5111517;28;20589;-63
2023/09/12 09:20:29;;;;;;;3.80;1.95;;;;;;;33.00;32.92;99331.59;5111519;28;20221;-62
2023/09/12 09:23:00;;;;;;;7.03;2.47;;;;;;;33.25;34.85;99322.25;5111407;28;20333;-63
2023/09/12 09:25:28;;;;;;;7.97;2.25;;;;;;;33.33;30.46;99324.41;5111404;28;20212;-63
2023/09/12 09:27:55;;;;;;;4.45;2.15;;;;;;;33.55;32.81;99327.00;5111435;28;20288;-63
2023/09/12 09:30:40;;;;;;;5.03;2.10;;;;;;;33.56;31.46;99331.22;5111397;28;20248;-62
2023/09/12 09:33:07;;;;;;;3.38;1.92;;;;;;;33.62;30.50;99326.75;5111473;28;20201;-62
2023/09/12 09:35:35;;;;;;;3.80;2.10;;;;;;;33.72;32.72;99326.84;5111379;28;20229;-62
2023/09/12 09:38:02;;;;;;;4.38;2.10;;;;;;;33.99;37.20;99324.81;5111402;28;20285;-62
2023/09/12 09:40:29;;;;;;;7.05;2.30;;;;;;;34.01;31.57;99319.28;5111103;28;20204;-62
2023/09/12 09:42:57;;;;;;;4.65;2.10;;;;;;;33.98;33.40;99315.28;5111236;28;20926;-62
2023/09/12 09:45:24;;;;;;;3.15;2.20;;;;;;;33.72;30.43;99326.84;5110923;28;20202;-62
2023/09/12 09:47:52;;;;;;;3.47;2.00;;;;;;;33.62;29.39;99326.75;5111102;28;20580;-62
2023/09/12 09:50:19;;;;;;;4.72;2.08;;;;;;;33.42;30.65;99322.88;5111255;28;20281;-62
2023/09/12 09:52:46;;;;;;;4.25;2.30;;;;;;;33.47;31.58;99320.28;5111054;28;20204;-62
2023/09/12 09:55:15;;;;;;;2.78;2.10;;;;;;;33.23;30.65;99324.38;5110725;28;20205;-62
2023/09/12 09:57:42;;;;;;;2.22;1.90;;;;;;;33.08;29.63;99317.09;5109659;28;20219;-62
2023/09/12 10:00:14;;;;;;;4.60;2.60;;;;;;;33.24;31.26;99310.06;5110730;28;20210;-62
2023/09/12 10:02:41;;;;;;;3.53;2.20;;;;;;;33.34;31.93;99312.78;5110706;28;20244;-62
2023/09/12 10:05:11;;;;;;;2.78;2.17;;;;;;;33.47;33.35;99303.56;5110957;28;20198;-62
2023/09/12 10:07:39;;;;;;;2.25;1.92;;;;;;;33.58;30.68;99306.06;5110763;28;20225;-62
2023/09/12 10:10:07;;;;;;;2.20;2.00;;;;;;;33.44;31.62;99302.22;5110705;28;20263;-62
2023/09/12 10:12:36;;;;;;;3.70;2.20;;;;;;;33.47;33.01;99308.88;5111090;28;20638;-62
2023/09/12 10:15:05;;;;;;;2.80;2.10;;;;;;;33.44;32.16;99307.53;5110351;28;20701;-62
2023/09/12 10:17:37;;;;;;;3.10;1.92;;;;;;;33.73;35.27;99301.91;5110480;28;20684;-62
2023/09/12 10:20:09;;;;;;;3.90;2.17;;;;;;;33.46;30.28;99294.84;5110759;28;20190;-62
2023/09/12 10:22:43;;;;;;;5.28;2.30;;;;;;;33.45;32.10;99300.38;5110902;28;20237;-62
2023/09/12 10:25:10;;;;;;;5.70;2.25;;;;;;;33.40;32.19;99303.81;5110554;28;20201;-62
2023/09/12 10:27:37;;;;;;;3.20;2.17;;;;;;;33.55;32.37;99295.97;5110680;28;20204;-62
2023/09/12 10:30:05;;;;;;;6.65;2.22;;;;;;;33.81;35.20;99298.75;5110318;28;20201;-62
2023/09/12 10:32:33;;;;;;;4.10;1.80;;;;;;;33.88;32.57;99294.00;5109683;28;20671;-62
2023/09/12 10:35:01;;;;;;;3.53;1.98;;;;;;;33.92;30.68;99294.28;5108715;28;20400;-62
2023/09/12 10:37:30;;;;;;;2.72;2.20;;;;;;;33.89;31.51;99282.34;5108499;28;20229;-62
2023/09/12 10:39:59;;;;;;;4.07;2.10;;;;;;;33.73;31.14;99286.78;5109873;28;20209;-62
2023/09/12 10:42:28;;;;;;;2.47;1.95;;;;;;;33.90;32.02;99281.28;5110443;28;20475;-62
2023/09/12 10:44:56;;;;;;;3.33;2.55;;;;;;;33.67;31.94;99276.41;5109782;28;20198;-62
2023/09/12 10:47:23;;;;;;;7.55;2.05;;;;;;;33.58;31.35;99279.53;5110282;28;20246;-62
2023/09/12 10:49:50;;;;;;;3.63;2.00;;;;;;;33.22;30.08;99290.94;5109719;28;20216;-62
2023/09/12 10:52:26;;;;;;;3.45;2.20;;;;;;;33.46;30.80;99273.63;5109755;28;20225;-62
2023/09/12 10:54:53;;;;;;;3.42;2.10;;;;;;;33.58;31.76;99268.94;5109592;28;20765;-62
2023/09/12 10:57:21;;;;;;;2.88;2.20;;;;;;;33.55;32.06;99269.47;5109877;28;20735;-62
2023/09/12 11:00:13;;;;;;;2.55;2.08;;;;;;;33.41;32.10;99267.50;5109546;28;20718;-62
2023/09/12 11:02:41;;;;;;;3.78;2.17;;;;;;;33.48;32.90;99263.56;5109614;28;20233;-62
2023/09/12 11:05:38;;;;;;;4.75;2.28;;;;;;;33.76;33.79;99261.59;5109912;28;20201;-62
2023/09/12 11:08:05;;;;;;;3.22;2.17;;;;;;;33.75;31.26;99267.97;5109459;28;20270;-62
2023/09/12 11:10:33;;;;;;;3.55;1.95;;;;;;;33.88;32.91;99256.88;5109688;28;20674;-62
2023/09/12 11:13:01;;;;;;;2.97;2.08;;;;;;;34.02;31.51;99257.97;5109502;28;20292;-62
2023/09/12 11:15:31;;;;;;;3.28;2.20;;;;;;;34.12;32.60;99256.44;5109369;28;20695;-62
2023/09/12 11:18:04;;;;;;;4.13;2.17;;;;;;;34.09;31.89;99251.66;5109316;28;20194;-62
2023/09/12 11:20:50;;;;;;;2.60;2.20;;;;;;;34.15;33.39;99247.94;5109296;28;20755;-62
2023/09/12 11:23:17;;;;;;;5.63;2.47;;;;;;;34.07;30.75;99253.78;5109395;28;20225;-62
2023/09/12 11:25:44;;;;;;;6.40;2.55;;;;;;;34.21;31.90;99250.38;5109296;28;20709;-62
2023/09/12 11:28:12;;;;;;;3.55;2.55;;;;;;;34.01;30.67;99256.41;5109336;28;20205;-62
2023/09/12 11:30:57;;;;;;;3.33;2.42;;;;;;;33.50;31.91;99239.44;5108980;28;20501;-62
2023/09/12 11:33:25;;;;;;;3.10;2.20;;;;;;;33.43;31.49;99244.19;5109010;28;20752;-62
2023/09/12 11:35:54;;;;;;;2.90;2.17;;;;;;;33.63;33.13;99238.19;5108840;28;20197;-62
2023/09/12 11:38:28;;;;;;;2.97;2.10;;;;;;;33.48;30.72;99236.25;5109251;28;20202;-62